sensor_id;sensor_type;location;lat;lon;timestamp;temperature;humidity
41838;DHT22;27511;52.042;5.178;2023-07-28T00:00:56;22.20;99.90
41838;DHT22;27511;52.042;5.178;2023-07-28T00:03:22;22.10;99.90
41838;DHT22;27511;52.042;5.178;2023-07-28T00:05:47;22.20;99.90
41838;DHT22;27511;52.042;5.178;2023-07-28T00:08:13;22.20;99.90
41838;DHT22;27511;52.042;5.178;2023-07-28T00:10:42;22.20;99.90
41838;DHT22;27511;52.042;5.178;2023-07-28T00:13:07;22.10;99.90
41838;DHT22;27511;52.042;5.178;2023-07-28T00:15:33;22.10;99.90
41838;DHT22;27511;52.042;5.178;2023-07-28T00:17:58;22.20;99.90
41838;DHT22;27511;52.042;5.178;2023-07-28T00:20:25;22.10;99.90
41838;DHT22;27511;52.042;5.178;2023-07-28T00:22:50;22.10;99.90
41838;DHT22;27511;52.042;5.178;2023-07-28T00:25:16;22.00;99.90
41838;DHT22;27511;52.042;5.178;2023-07-28T00:27:41;22.00;99.90
41838;DHT22;27511;52.042;5.178;2023-07-28T00:30:07;22.00;99.90
41838;DHT22;27511;52.042;5.178;2023-07-28T00:32:32;22.00;99.90
41838;DHT22;27511;52.042;5.178;2023-07-28T00:34:58;22.00;99.90
41838;DHT22;27511;52.042;5.178;2023-07-28T00:37:23;22.10;99.90
41838;DHT22;27511;52.042;5.178;2023-07-28T00:39:49;22.00;99.90
41838;DHT22;27511;52.042;5.178;2023-07-28T00:42:14;22.00;99.90
41838;DHT22;27511;52.042;5.178;2023-07-28T00:44:40;22.00;99.90
41838;DHT22;27511;52.042;5.178;2023-07-28T00:47:05;22.10;99.90
41838;DHT22;27511;52.042;5.178;2023-07-28T00:49:31;22.00;99.90
41838;DHT22;27511;52.042;5.178;2023-07-28T00:51:56;22.00;99.90
41838;DHT22;27511;52.042;5.178;2023-07-28T00:54:23;21.90;99.90
41838;DHT22;27511;52.042;5.178;2023-07-28T00:56:48;21.80;99.90
41838;DHT22;27511;52.042;5.178;2023-07-28T00:59:14;21.90;99.90
41838;DHT22;27511;52.042;5.178;2023-07-28T01:01:46;22.00;99.90
41838;DHT22;27511;52.042;5.178;2023-07-28T01:04:11;22.00;99.90
41838;DHT22;27511;52.042;5.178;2023-07-28T01:09:06;22.10;99.90
41838;DHT22;27511;52.042;5.178;2023-07-28T01:11:35;22.00;99.90
41838;DHT22;27511;52.042;5.178;2023-07-28T01:14:00;21.90;99.90
41838;DHT22;27511;52.042;5.178;2023-07-28T01:16:26;21.90;99.90
41838;DHT22;27511;52.042;5.178;2023-07-28T01:18:51;21.90;99.90
41838;DHT22;27511;52.042;5.178;2023-07-28T01:21:19;21.90;99.90
41838;DHT22;27511;52.042;5.178;2023-07-28T01:26:14;22.20;99.90
41838;DHT22;27511;52.042;5.178;2023-07-28T01:28:40;22.20;99.90
41838;DHT22;27511;52.042;5.178;2023-07-28T01:31:07;22.20;99.90
41838;DHT22;27511;52.042;5.178;2023-07-28T01:33:32;22.20;99.90
41838;DHT22;27511;52.042;5.178;2023-07-28T01:35:58;22.10;99.90
41838;DHT22;27511;52.042;5.178;2023-07-28T01:38:26;22.00;99.90
41838;DHT22;27511;52.042;5.178;2023-07-28T01:40:52;21.90;99.90
41838;DHT22;27511;52.042;5.178;2023-07-28T01:43:17;22.00;99.90
41838;DHT22;27511;52.042;5.178;2023-07-28T01:45:43;22.00;99.90
41838;DHT22;27511;52.042;5.178;2023-07-28T01:48:08;22.10;99.90
41838;DHT22;27511;52.042;5.178;2023-07-28T01:50:35;22.10;99.90
41838;DHT22;27511;52.042;5.178;2023-07-28T01:53:00;22.20;99.90
41838;DHT22;27511;52.042;5.178;2023-07-28T01:55:26;22.20;99.90
41838;DHT22;27511;52.042;5.178;2023-07-28T01:57:59;22.10;99.90
41838;DHT22;27511;52.042;5.178;2023-07-28T02:00:24;22.10;99.90
41838;DHT22;27511;52.042;5.178;2023-07-28T02:02:50;22.10;99.90
41838;DHT22;27511;52.042;5.178;2023-07-28T02:05:16;22.20;99.90
41838;DHT22;27511;52.042;5.178;2023-07-28T02:07:42;22.20;99.90
41838;DHT22;27511;52.042;5.178;2023-07-28T02:10:08;22.00;99.90
41838;DHT22;27511;52.042;5.178;2023-07-28T02:12:33;22.10;99.90
41838;DHT22;27511;52.042;5.178;2023-07-28T02:14:59;22.10;99.90
41838;DHT22;27511;52.042;5.178;2023-07-28T02:17:24;22.10;99.90
41838;DHT22;27511;52.042;5.178;2023-07-28T02:19:50;22.20;99.90
41838;DHT22;27511;52.042;5.178;2023-07-28T02:22:15;22.20;99.90
41838;DHT22;27511;52.042;5.178;2023-07-28T02:24:41;22.20;99.90
41838;DHT22;27511;52.042;5.178;2023-07-28T02:27:06;22.10;99.90
41838;DHT22;27511;52.042;5.178;2023-07-28T02:29:32;22.10;99.90
41838;DHT22;27511;52.042;5.178;2023-07-28T02:31:57;22.20;99.90
41838;DHT22;27511;52.042;5.178;2023-07-28T02:34:23;22.20;99.90
41838;DHT22;27511;52.042;5.178;2023-07-28T02:36:48;22.10;99.90
41838;DHT22;27511;52.042;5.178;2023-07-28T02:39:14;22.10;99.90
41838;DHT22;27511;52.042;5.178;2023-07-28T02:41:39;22.10;99.90
41838;DHT22;27511;52.042;5.178;2023-07-28T02:44:05;22.10;99.90
41838;DHT22;27511;52.042;5.178;2023-07-28T02:46:30;22.20;99.90
41838;DHT22;27511;52.042;5.178;2023-07-28T02:48:55;22.30;99.90
41838;DHT22;27511;52.042;5.178;2023-07-28T02:51:21;22.10;99.90
41838;DHT22;27511;52.042;5.178;2023-07-28T02:53:46;22.10;99.90
41838;DHT22;27511;52.042;5.178;2023-07-28T02:56:12;22.20;99.90
41838;DHT22;27511;52.042;5.178;2023-07-28T02:58:37;22.30;99.90
41838;DHT22;27511;52.042;5.178;2023-07-28T03:01:03;22.30;99.90
41838;DHT22;27511;52.042;5.178;2023-07-28T03:03:29;22.10;99.90
41838;DHT22;27511;52.042;5.178;2023-07-28T03:05:54;22.20;99.90
41838;DHT22;27511;52.042;5.178;2023-07-28T03:08:20;22.20;99.90
41838;DHT22;27511;52.042;5.178;2023-07-28T03:10:45;22.20;99.90
41838;DHT22;27511;52.042;5.178;2023-07-28T03:13:11;22.20;99.90
41838;DHT22;27511;52.042;5.178;2023-07-28T03:15:36;22.30;99.90
41838;DHT22;27511;52.042;5.178;2023-07-28T03:18:02;22.20;99.90
41838;DHT22;27511;52.042;5.178;2023-07-28T03:20:27;22.20;99.90
41838;DHT22;27511;52.042;5.178;2023-07-28T03:22:53;22.20;99.90
41838;DHT22;27511;52.042;5.178;2023-07-28T03:25:20;22.20;99.90
41838;DHT22;27511;52.042;5.178;2023-07-28T03:27:45;22.20;99.90
41838;DHT22;27511;52.042;5.178;2023-07-28T03:30:11;22.20;99.90
41838;DHT22;27511;52.042;5.178;2023-07-28T03:32:36;22.20;99.90
41838;DHT22;27511;52.042;5.178;2023-07-28T03:35:02;22.20;99.90
41838;DHT22;27511;52.042;5.178;2023-07-28T03:37:33;22.30;99.90
41838;DHT22;27511;52.042;5.178;2023-07-28T03:39:59;22.20;99.90
41838;DHT22;27511;52.042;5.178;2023-07-28T03:42:25;22.20;99.90
41838;DHT22;27511;52.042;5.178;2023-07-28T03:44:50;22.20;99.90
41838;DHT22;27511;52.042;5.178;2023-07-28T03:47:16;22.20;99.90
41838;DHT22;27511;52.042;5.178;2023-07-28T03:49:41;22.30;99.90
41838;DHT22;27511;52.042;5.178;2023-07-28T03:52:07;22.30;99.90
41838;DHT22;27511;52.042;5.178;2023-07-28T03:54:32;22.30;99.90
41838;DHT22;27511;52.042;5.178;2023-07-28T03:56:58;22.20;99.90
41838;DHT22;27511;52.042;5.178;2023-07-28T03:59:23;22.30;99.90
41838;DHT22;27511;52.042;5.178;2023-07-28T04:01:49;22.30;99.90
41838;DHT22;27511;52.042;5.178;2023-07-28T04:04:15;22.30;99.90
41838;DHT22;27511;52.042;5.178;2023-07-28T04:09:09;22.20;99.90
41838;DHT22;27511;52.042;5.178;2023-07-28T04:11:34;22.30;99.90
41838;DHT22;27511;52.042;5.178;2023-07-28T04:14:00;22.40;99.90
41838;DHT22;27511;52.042;5.178;2023-07-28T04:16:25;22.30;99.90
41838;DHT22;27511;52.042;5.178;2023-07-28T04:18:51;22.20;99.90
41838;DHT22;27511;52.042;5.178;2023-07-28T04:21:16;22.20;99.90
41838;DHT22;27511;52.042;5.178;2023-07-28T04:23:42;22.20;99.90
41838;DHT22;27511;52.042;5.178;2023-07-28T04:26:17;22.30;99.90
41838;DHT22;27511;52.042;5.178;2023-07-28T04:28:43;22.40;99.90
41838;DHT22;27511;52.042;5.178;2023-07-28T04:31:08;22.30;99.90
41838;DHT22;27511;52.042;5.178;2023-07-28T04:33:46;22.30;99.90
41838;DHT22;27511;52.042;5.178;2023-07-28T04:39:33;22.20;99.90
41838;DHT22;27511;52.042;5.178;2023-07-28T04:47:57;22.20;99.90
41838;DHT22;27511;52.042;5.178;2023-07-28T04:50:22;22.30;99.90
41838;DHT22;27511;52.042;5.178;2023-07-28T04:52:48;22.40;99.90
41838;DHT22;27511;52.042;5.178;2023-07-28T04:55:13;22.30;99.90
41838;DHT22;27511;52.042;5.178;2023-07-28T04:57:39;22.30;99.90
41838;DHT22;27511;52.042;5.178;2023-07-28T05:00:04;22.30;99.90
41838;DHT22;27511;52.042;5.178;2023-07-28T05:02:30;22.30;99.90
41838;DHT22;27511;52.042;5.178;2023-07-28T05:04:56;22.30;99.90
41838;DHT22;27511;52.042;5.178;2023-07-28T05:07:21;22.20;99.90
41838;DHT22;27511;52.042;5.178;2023-07-28T05:09:47;22.30;99.90
41838;DHT22;27511;52.042;5.178;2023-07-28T05:12:12;22.50;99.90
41838;DHT22;27511;52.042;5.178;2023-07-28T05:17:36;22.40;99.90
41838;DHT22;27511;52.042;5.178;2023-07-28T05:20:04;22.30;99.90
41838;DHT22;27511;52.042;5.178;2023-07-28T05:22:32;22.20;99.90
41838;DHT22;27511;52.042;5.178;2023-07-28T05:25:01;22.20;99.90
41838;DHT22;27511;52.042;5.178;2023-07-28T05:27:29;22.20;99.90
41838;DHT22;27511;52.042;5.178;2023-07-28T05:29:58;22.30;99.90
41838;DHT22;27511;52.042;5.178;2023-07-28T05:32:24;22.40;99.90
41838;DHT22;27511;52.042;5.178;2023-07-28T05:34:56;22.40;99.90
41838;DHT22;27511;52.042;5.178;2023-07-28T05:37:28;22.40;99.90
41838;DHT22;27511;52.042;5.178;2023-07-28T05:39:57;22.40;99.90
41838;DHT22;27511;52.042;5.178;2023-07-28T05:42:22;22.40;99.90
41838;DHT22;27511;52.042;5.178;2023-07-28T05:44:52;22.40;99.90
41838;DHT22;27511;52.042;5.178;2023-07-28T05:47:19;22.40;99.90
41838;DHT22;27511;52.042;5.178;2023-07-28T05:49:53;22.40;99.90
41838;DHT22;27511;52.042;5.178;2023-07-28T05:52:19;22.50;99.90
41838;DHT22;27511;52.042;5.178;2023-07-28T05:54:44;22.40;99.90
41838;DHT22;27511;52.042;5.178;2023-07-28T05:57:10;22.50;99.90
41838;DHT22;27511;52.042;5.178;2023-07-28T05:59:36;22.50;99.90
41838;DHT22;27511;52.042;5.178;2023-07-28T06:02:01;22.60;99.90
41838;DHT22;27511;52.042;5.178;2023-07-28T06:04:27;22.50;99.90
41838;DHT22;27511;52.042;5.178;2023-07-28T06:06:53;22.50;99.90
41838;DHT22;27511;52.042;5.178;2023-07-28T06:09:18;22.40;99.90
41838;DHT22;27511;52.042;5.178;2023-07-28T06:11:44;22.50;99.90
41838;DHT22;27511;52.042;5.178;2023-07-28T06:14:09;22.50;99.90
41838;DHT22;27511;52.042;5.178;2023-07-28T06:16:35;22.60;99.90
41838;DHT22;27511;52.042;5.178;2023-07-28T06:19:01;22.70;99.90
41838;DHT22;27511;52.042;5.178;2023-07-28T06:21:26;22.60;99.90
41838;DHT22;27511;52.042;5.178;2023-07-28T06:23:52;22.50;99.90
41838;DHT22;27511;52.042;5.178;2023-07-28T06:26:17;22.50;99.90
41838;DHT22;27511;52.042;5.178;2023-07-28T06:28:43;22.60;99.90
41838;DHT22;27511;52.042;5.178;2023-07-28T06:31:08;22.60;99.90
41838;DHT22;27511;52.042;5.178;2023-07-28T06:33:34;22.60;99.90
41838;DHT22;27511;52.042;5.178;2023-07-28T06:36:00;22.70;99.90
41838;DHT22;27511;52.042;5.178;2023-07-28T06:38:25;22.70;99.90
41838;DHT22;27511;52.042;5.178;2023-07-28T06:40:52;22.60;99.90
41838;DHT22;27511;52.042;5.178;2023-07-28T06:43:17;22.70;99.90
41838;DHT22;27511;52.042;5.178;2023-07-28T06:45:44;22.80;99.90
41838;DHT22;27511;52.042;5.178;2023-07-28T06:48:09;22.80;99.90
41838;DHT22;27511;52.042;5.178;2023-07-28T06:50:35;22.70;99.90
41838;DHT22;27511;52.042;5.178;2023-07-28T06:53:00;22.70;99.90
41838;DHT22;27511;52.042;5.178;2023-07-28T06:55:26;22.80;99.90
41838;DHT22;27511;52.042;5.178;2023-07-28T06:57:51;22.70;99.90
41838;DHT22;27511;52.042;5.178;2023-07-28T07:00:17;22.70;99.90
41838;DHT22;27511;52.042;5.178;2023-07-28T07:02:45;22.70;99.90
41838;DHT22;27511;52.042;5.178;2023-07-28T07:05:11;22.70;99.90
41838;DHT22;27511;52.042;5.178;2023-07-28T07:07:38;22.70;99.90
41838;DHT22;27511;52.042;5.178;2023-07-28T07:10:04;22.70;99.90
41838;DHT22;27511;52.042;5.178;2023-07-28T07:12:29;22.70;99.90
41838;DHT22;27511;52.042;5.178;2023-07-28T07:14:55;22.70;99.90
41838;DHT22;27511;52.042;5.178;2023-07-28T07:17:20;22.70;99.90
41838;DHT22;27511;52.042;5.178;2023-07-28T07:19:46;22.70;99.90
41838;DHT22;27511;52.042;5.178;2023-07-28T07:22:11;22.80;99.90
41838;DHT22;27511;52.042;5.178;2023-07-28T07:24:36;22.80;99.90
41838;DHT22;27511;52.042;5.178;2023-07-28T07:27:02;22.80;99.90
41838;DHT22;27511;52.042;5.178;2023-07-28T07:29:28;22.70;99.90
41838;DHT22;27511;52.042;5.178;2023-07-28T07:31:53;22.70;99.90
41838;DHT22;27511;52.042;5.178;2023-07-28T07:34:23;22.80;99.90
41838;DHT22;27511;52.042;5.178;2023-07-28T07:36:49;22.80;99.90
41838;DHT22;27511;52.042;5.178;2023-07-28T07:39:14;22.90;99.90
41838;DHT22;27511;52.042;5.178;2023-07-28T07:41:40;22.90;99.90
41838;DHT22;27511;52.042;5.178;2023-07-28T07:44:05;22.90;99.90
41838;DHT22;27511;52.042;5.178;2023-07-28T07:46:31;23.10;99.90
41838;DHT22;27511;52.042;5.178;2023-07-28T07:48:56;23.00;99.90
41838;DHT22;27511;52.042;5.178;2023-07-28T07:51:22;23.10;99.90
41838;DHT22;27511;52.042;5.178;2023-07-28T07:53:48;23.00;99.90
41838;DHT22;27511;52.042;5.178;2023-07-28T07:56:14;23.10;99.90
41838;DHT22;27511;52.042;5.178;2023-07-28T07:58:39;23.10;99.90
41838;DHT22;27511;52.042;5.178;2023-07-28T08:01:05;23.10;99.90
41838;DHT22;27511;52.042;5.178;2023-07-28T08:03:30;23.10;99.90
41838;DHT22;27511;52.042;5.178;2023-07-28T08:05:57;23.10;99.90
41838;DHT22;27511;52.042;5.178;2023-07-28T08:08:23;23.20;99.90
41838;DHT22;27511;52.042;5.178;2023-07-28T08:10:49;23.30;99.90
41838;DHT22;27511;52.042;5.178;2023-07-28T08:13:15;23.30;99.90
41838;DHT22;27511;52.042;5.178;2023-07-28T08:15:40;23.40;99.90
41838;DHT22;27511;52.042;5.178;2023-07-28T08:18:13;23.40;99.90
41838;DHT22;27511;52.042;5.178;2023-07-28T08:20:39;23.50;99.90
41838;DHT22;27511;52.042;5.178;2023-07-28T08:23:05;23.40;99.90
41838;DHT22;27511;52.042;5.178;2023-07-28T08:25:33;23.30;99.90
41838;DHT22;27511;52.042;5.178;2023-07-28T08:28:02;23.30;99.90
41838;DHT22;27511;52.042;5.178;2023-07-28T08:30:27;23.40;99.90
41838;DHT22;27511;52.042;5.178;2023-07-28T08:32:53;23.50;99.90
41838;DHT22;27511;52.042;5.178;2023-07-28T08:35:18;23.50;99.90
41838;DHT22;27511;52.042;5.178;2023-07-28T08:37:44;23.50;99.90
41838;DHT22;27511;52.042;5.178;2023-07-28T08:40:09;23.50;99.90
41838;DHT22;27511;52.042;5.178;2023-07-28T08:42:37;23.50;99.90
41838;DHT22;27511;52.042;5.178;2023-07-28T08:45:03;23.50;99.90
41838;DHT22;27511;52.042;5.178;2023-07-28T08:47:30;23.50;99.90
41838;DHT22;27511;52.042;5.178;2023-07-28T08:49:56;23.50;99.90
41838;DHT22;27511;52.042;5.178;2023-07-28T08:52:22;23.60;99.90
41838;DHT22;27511;52.042;5.178;2023-07-28T08:54:49;23.70;99.90
41838;DHT22;27511;52.042;5.178;2023-07-28T08:57:14;23.50;99.90
41838;DHT22;27511;52.042;5.178;2023-07-28T08:59:40;23.60;99.90
41838;DHT22;27511;52.042;5.178;2023-07-28T09:02:13;23.50;99.90
41838;DHT22;27511;52.042;5.178;2023-07-28T09:04:39;23.50;99.90
41838;DHT22;27511;52.042;5.178;2023-07-28T09:07:05;23.60;99.90
41838;DHT22;27511;52.042;5.178;2023-07-28T09:09:31;23.70;99.90
41838;DHT22;27511;52.042;5.178;2023-07-28T09:11:58;23.80;99.90
41838;DHT22;27511;52.042;5.178;2023-07-28T09:14:24;23.90;99.90
41838;DHT22;27511;52.042;5.178;2023-07-28T09:16:50;23.90;99.90
41838;DHT22;27511;52.042;5.178;2023-07-28T09:19:15;24.00;99.90
41838;DHT22;27511;52.042;5.178;2023-07-28T09:21:44;24.10;99.90
41838;DHT22;27511;52.042;5.178;2023-07-28T09:24:12;24.00;99.90
41838;DHT22;27511;52.042;5.178;2023-07-28T09:26:42;24.00;99.90
41838;DHT22;27511;52.042;5.178;2023-07-28T09:31:41;24.00;99.90
41838;DHT22;27511;52.042;5.178;2023-07-28T09:34:07;24.20;99.90
41838;DHT22;27511;52.042;5.178;2023-07-28T09:36:34;24.20;99.90
41838;DHT22;27511;52.042;5.178;2023-07-28T09:38:59;24.30;99.90
41838;DHT22;27511;52.042;5.178;2023-07-28T09:41:26;24.40;99.90
41838;DHT22;27511;52.042;5.178;2023-07-28T09:43:53;24.40;99.90
41838;DHT22;27511;52.042;5.178;2023-07-28T09:46:19;24.50;99.90
41838;DHT22;27511;52.042;5.178;2023-07-28T09:48:45;24.30;99.90
41838;DHT22;27511;52.042;5.178;2023-07-28T09:51:17;24.40;99.90
41838;DHT22;27511;52.042;5.178;2023-07-28T09:53:44;24.40;99.90
41838;DHT22;27511;52.042;5.178;2023-07-28T09:56:12;24.40;99.90
41838;DHT22;27511;52.042;5.178;2023-07-28T09:58:40;24.40;99.90
41838;DHT22;27511;52.042;5.178;2023-07-28T10:01:06;24.40;99.90
41838;DHT22;27511;52.042;5.178;2023-07-28T10:03:32;24.50;99.90
41838;DHT22;27511;52.042;5.178;2023-07-28T10:05:58;24.50;99.90
41838;DHT22;27511;52.042;5.178;2023-07-28T10:08:24;24.60;99.90
41838;DHT22;27511;52.042;5.178;2023-07-28T10:10:50;24.70;99.90
41838;DHT22;27511;52.042;5.178;2023-07-28T10:13:21;24.70;99.90
41838;DHT22;27511;52.042;5.178;2023-07-28T10:15:47;24.70;99.90
41838;DHT22;27511;52.042;5.178;2023-07-28T10:18:13;24.50;99.90
41838;DHT22;27511;52.042;5.178;2023-07-28T10:20:40;24.60;99.90
41838;DHT22;27511;52.042;5.178;2023-07-28T10:25:36;24.60;99.90
41838;DHT22;27511;52.042;5.178;2023-07-28T10:28:02;24.70;99.90
41838;DHT22;27511;52.042;5.178;2023-07-28T10:30:28;24.60;99.90
41838;DHT22;27511;52.042;5.178;2023-07-28T10:32:54;24.80;99.90
41838;DHT22;27511;52.042;5.178;2023-07-28T10:35:23;24.80;99.90
41838;DHT22;27511;52.042;5.178;2023-07-28T10:37:50;24.90;99.90
41838;DHT22;27511;52.042;5.178;2023-07-28T10:42:47;24.90;99.90
41838;DHT22;27511;52.042;5.178;2023-07-28T10:45:13;24.90;99.90
41838;DHT22;27511;52.042;5.178;2023-07-28T10:47:39;25.10;99.90
41838;DHT22;27511;52.042;5.178;2023-07-28T10:50:05;25.00;99.90
41838;DHT22;27511;52.042;5.178;2023-07-28T10:52:30;25.00;99.90
41838;DHT22;27511;52.042;5.178;2023-07-28T10:54:56;25.00;99.90
41838;DHT22;27511;52.042;5.178;2023-07-28T10:57:23;25.00;99.90
41838;DHT22;27511;52.042;5.178;2023-07-28T10:59:51;24.90;99.90
41838;DHT22;27511;52.042;5.178;2023-07-28T11:02:17;25.00;99.90
41838;DHT22;27511;52.042;5.178;2023-07-28T11:04:46;25.00;99.90
41838;DHT22;27511;52.042;5.178;2023-07-28T11:07:12;25.10;99.90
41838;DHT22;27511;52.042;5.178;2023-07-28T11:09:38;25.10;99.90
41838;DHT22;27511;52.042;5.178;2023-07-28T11:12:04;25.00;99.90
41838;DHT22;27511;52.042;5.178;2023-07-28T11:14:33;25.00;99.90
41838;DHT22;27511;52.042;5.178;2023-07-28T11:17:00;25.10;99.90
41838;DHT22;27511;52.042;5.178;2023-07-28T11:19:26;25.20;99.90
41838;DHT22;27511;52.042;5.178;2023-07-28T11:21:52;25.20;99.90
41838;DHT22;27511;52.042;5.178;2023-07-28T11:24:18;25.30;99.90
41838;DHT22;27511;52.042;5.178;2023-07-28T11:26:45;25.40;99.90
41838;DHT22;27511;52.042;5.178;2023-07-28T11:29:13;25.40;99.90
41838;DHT22;27511;52.042;5.178;2023-07-28T11:31:40;25.60;99.90
41838;DHT22;27511;52.042;5.178;2023-07-28T11:34:13;25.80;99.90
41838;DHT22;27511;52.042;5.178;2023-07-28T11:36:39;25.80;99.90
41838;DHT22;27511;52.042;5.178;2023-07-28T11:39:06;25.90;99.90
41838;DHT22;27511;52.042;5.178;2023-07-28T11:41:32;25.80;99.90
41838;DHT22;27511;52.042;5.178;2023-07-28T11:43:58;25.90;99.90
41838;DHT22;27511;52.042;5.178;2023-07-28T11:46:40;25.90;99.90
41838;DHT22;27511;52.042;5.178;2023-07-28T11:49:16;26.00;99.90
41838;DHT22;27511;52.042;5.178;2023-07-28T11:51:44;25.90;99.90
41838;DHT22;27511;52.042;5.178;2023-07-28T11:54:11;26.00;99.90
41838;DHT22;27511;52.042;5.178;2023-07-28T11:56:40;26.00;99.90
41838;DHT22;27511;52.042;5.178;2023-07-28T11:59:05;25.90;99.90
41838;DHT22;27511;52.042;5.178;2023-07-28T12:01:31;25.90;99.90
41838;DHT22;27511;52.042;5.178;2023-07-28T12:03:56;25.90;99.90
41838;DHT22;27511;52.042;5.178;2023-07-28T12:06:26;26.00;99.90
41838;DHT22;27511;52.042;5.178;2023-07-28T12:09:03;26.20;99.90
41838;DHT22;27511;52.042;5.178;2023-07-28T12:11:29;26.30;99.90
41838;DHT22;27511;52.042;5.178;2023-07-28T12:13:54;26.40;99.90
41838;DHT22;27511;52.042;5.178;2023-07-28T12:16:39;26.30;99.90
41838;DHT22;27511;52.042;5.178;2023-07-28T12:19:07;26.30;99.90
41838;DHT22;27511;52.042;5.178;2023-07-28T12:21:33;26.40;99.90
41838;DHT22;27511;52.042;5.178;2023-07-28T12:23:58;26.40;99.90
41838;DHT22;27511;52.042;5.178;2023-07-28T12:26:24;26.50;99.90
41838;DHT22;27511;52.042;5.178;2023-07-28T12:28:49;26.60;99.90
41838;DHT22;27511;52.042;5.178;2023-07-28T12:31:15;26.40;99.90
41838;DHT22;27511;52.042;5.178;2023-07-28T12:33:41;26.40;99.90
41838;DHT22;27511;52.042;5.178;2023-07-28T12:36:06;26.50;99.90
41838;DHT22;27511;52.042;5.178;2023-07-28T12:38:32;26.60;99.90
41838;DHT22;27511;52.042;5.178;2023-07-28T12:40:57;26.70;99.90
41838;DHT22;27511;52.042;5.178;2023-07-28T12:43:23;26.70;99.90
41838;DHT22;27511;52.042;5.178;2023-07-28T12:45:51;26.70;99.90
41838;DHT22;27511;52.042;5.178;2023-07-28T12:48:17;26.40;99.90
41838;DHT22;27511;52.042;5.178;2023-07-28T12:50:42;26.30;99.90
41838;DHT22;27511;52.042;5.178;2023-07-28T12:53:08;26.20;99.90
41838;DHT22;27511;52.042;5.178;2023-07-28T12:55:34;26.30;99.90
41838;DHT22;27511;52.042;5.178;2023-07-28T12:58:00;26.20;99.90
41838;DHT22;27511;52.042;5.178;2023-07-28T13:00:25;26.20;99.90
41838;DHT22;27511;52.042;5.178;2023-07-28T13:02:53;26.20;99.90
41838;DHT22;27511;52.042;5.178;2023-07-28T13:05:18;26.30;99.90
41838;DHT22;27511;52.042;5.178;2023-07-28T13:07:44;26.40;99.90
41838;DHT22;27511;52.042;5.178;2023-07-28T13:10:10;26.20;99.90
41838;DHT22;27511;52.042;5.178;2023-07-28T13:12:36;26.10;99.90
41838;DHT22;27511;52.042;5.178;2023-07-28T13:15:02;26.20;99.90
41838;DHT22;27511;52.042;5.178;2023-07-28T13:17:27;26.20;99.90
41838;DHT22;27511;52.042;5.178;2023-07-28T13:19:53;26.20;99.90
41838;DHT22;27511;52.042;5.178;2023-07-28T13:22:19;26.20;99.90
41838;DHT22;27511;52.042;5.178;2023-07-28T13:24:44;26.30;99.90
41838;DHT22;27511;52.042;5.178;2023-07-28T13:27:10;26.30;99.90
41838;DHT22;27511;52.042;5.178;2023-07-28T13:29:36;26.30;99.90
41838;DHT22;27511;52.042;5.178;2023-07-28T13:32:01;26.50;99.90
41838;DHT22;27511;52.042;5.178;2023-07-28T13:34:27;26.70;99.90
41838;DHT22;27511;52.042;5.178;2023-07-28T13:36:53;26.80;99.90
41838;DHT22;27511;52.042;5.178;2023-07-28T13:39:18;27.00;99.90
41838;DHT22;27511;52.042;5.178;2023-07-28T13:41:44;27.10;99.90
41838;DHT22;27511;52.042;5.178;2023-07-28T13:44:10;27.10;99.90
41838;DHT22;27511;52.042;5.178;2023-07-28T13:46:35;27.00;99.90
41838;DHT22;27511;52.042;5.178;2023-07-28T13:49:01;26.80;99.90
41838;DHT22;27511;52.042;5.178;2023-07-28T13:51:26;26.80;99.90
41838;DHT22;27511;52.042;5.178;2023-07-28T13:53:52;26.90;99.90
41838;DHT22;27511;52.042;5.178;2023-07-28T13:56:17;26.90;99.90
41838;DHT22;27511;52.042;5.178;2023-07-28T13:58:43;26.90;99.90
41838;DHT22;27511;52.042;5.178;2023-07-28T14:01:09;26.90;99.90
41838;DHT22;27511;52.042;5.178;2023-07-28T14:03:34;27.00;99.90
41838;DHT22;27511;52.042;5.178;2023-07-28T14:06:00;27.00;99.90
41838;DHT22;27511;52.042;5.178;2023-07-28T14:08:25;26.90;99.90
41838;DHT22;27511;52.042;5.178;2023-07-28T14:10:52;27.00;99.90
41838;DHT22;27511;52.042;5.178;2023-07-28T14:13:17;27.00;99.90
41838;DHT22;27511;52.042;5.178;2023-07-28T14:15:43;27.20;99.90
41838;DHT22;27511;52.042;5.178;2023-07-28T14:18:08;27.10;99.90
41838;DHT22;27511;52.042;5.178;2023-07-28T14:20:34;27.10;99.90
41838;DHT22;27511;52.042;5.178;2023-07-28T14:22:59;27.20;99.90
41838;DHT22;27511;52.042;5.178;2023-07-28T14:25:28;27.30;99.90
41838;DHT22;27511;52.042;5.178;2023-07-28T14:27:53;27.40;99.90
41838;DHT22;27511;52.042;5.178;2023-07-28T14:30:19;27.30;99.90
41838;DHT22;27511;52.042;5.178;2023-07-28T14:32:44;27.20;99.90
41838;DHT22;27511;52.042;5.178;2023-07-28T14:35:10;27.00;99.90
41838;DHT22;27511;52.042;5.178;2023-07-28T14:37:38;26.90;99.90
41838;DHT22;27511;52.042;5.178;2023-07-28T14:40:03;27.00;99.90
41838;DHT22;27511;52.042;5.178;2023-07-28T14:42:29;27.00;99.90
41838;DHT22;27511;52.042;5.178;2023-07-28T14:44:54;26.90;99.90
41838;DHT22;27511;52.042;5.178;2023-07-28T14:47:20;26.90;99.90
41838;DHT22;27511;52.042;5.178;2023-07-28T14:49:45;26.70;99.90
41838;DHT22;27511;52.042;5.178;2023-07-28T14:52:11;26.60;99.90
41838;DHT22;27511;52.042;5.178;2023-07-28T14:54:36;26.60;99.90
41838;DHT22;27511;52.042;5.178;2023-07-28T14:57:02;26.40;99.90
41838;DHT22;27511;52.042;5.178;2023-07-28T14:59:27;26.40;99.90
41838;DHT22;27511;52.042;5.178;2023-07-28T15:01:53;26.40;99.90
41838;DHT22;27511;52.042;5.178;2023-07-28T15:04:18;26.40;99.90
41838;DHT22;27511;52.042;5.178;2023-07-28T15:06:44;26.50;99.90
41838;DHT22;27511;52.042;5.178;2023-07-28T15:09:09;26.60;99.90
41838;DHT22;27511;52.042;5.178;2023-07-28T15:11:35;26.80;99.90
41838;DHT22;27511;52.042;5.178;2023-07-28T15:14:00;26.90;99.90
41838;DHT22;27511;52.042;5.178;2023-07-28T15:16:26;27.00;99.90
41838;DHT22;27511;52.042;5.178;2023-07-28T15:18:51;27.10;99.90
41838;DHT22;27511;52.042;5.178;2023-07-28T15:21:17;26.90;99.90
41838;DHT22;27511;52.042;5.178;2023-07-28T15:23:42;26.90;99.90
41838;DHT22;27511;52.042;5.178;2023-07-28T15:26:08;26.80;99.90
41838;DHT22;27511;52.042;5.178;2023-07-28T15:28:33;26.80;99.90
41838;DHT22;27511;52.042;5.178;2023-07-28T15:30:59;26.70;99.90
41838;DHT22;27511;52.042;5.178;2023-07-28T15:33:24;26.70;99.90
41838;DHT22;27511;52.042;5.178;2023-07-28T15:35:55;26.60;99.90
41838;DHT22;27511;52.042;5.178;2023-07-28T15:38:21;26.70;99.90
41838;DHT22;27511;52.042;5.178;2023-07-28T15:40:46;26.90;99.90
41838;DHT22;27511;52.042;5.178;2023-07-28T15:43:12;27.10;99.90
41838;DHT22;27511;52.042;5.178;2023-07-28T15:45:37;27.20;99.90
41838;DHT22;27511;52.042;5.178;2023-07-28T15:48:03;27.00;99.90
41838;DHT22;27511;52.042;5.178;2023-07-28T15:50:28;26.70;99.90